CheckWX is a tool to help pilots better visualize weather data.  It is not intended as a substitute for an official pre-flight weather briefing.

02:09:54 UTC

SLJO METAR
San Joaquín Airport
San Joaquín, Bolivia
Current

4 hours ago

SLJO 202200Z 09006KT 6000 -TSRA FEW017 FEW023CB BKN070 BKN200 25/24 Q1008
Observed
Mar-20 @ 22:00 UTC
Wind
  • 090° at 6 KTS
Visibility
6,003 meters
Flight Rules
MVFR
Conditions
Light Thunderstorm, Light Rain
Cloud Levels
  • Few at 1,700' AGL
  • Few at 2,300' AGL
  • Broken at 7,000' AGL
  • Broken at 20,000' AGL
Temperature
25°C / 77°F
Dewpoint
24°C / 75°F
Humidity
94%
Altimeter
29.76" Hg
Pressure
1007.92 hPa
Previous

5 hours ago

SLJO 202100Z 32008KT 4000 -TSRA SCT017 FEW023CB BKN200 25/24 Q1008
Observed
Mar-20 @ 21:00 UTC
Wind
  • 320° at 8 KTS
Visibility
4,007 meters
Flight Rules
IFR
Conditions
Light Thunderstorm, Light Rain
Cloud Levels
  • Scattered at 1,700' AGL
  • Few at 2,300' AGL
  • Broken at 20,000' AGL
Temperature
25°C / 77°F
Dewpoint
24°C / 75°F
Humidity
94%
Altimeter
29.76" Hg
Pressure
1007.92 hPa
Previous

6 hours ago

SLJO 202000Z 00000KT 9999 SCT017 FEW023CB BKN200 31/26 Q1007
Observed
Mar-20 @ 20:00 UTC
Visibility
10,000+ meters
Flight Rules
VFR
Cloud Levels
  • Scattered at 1,700' AGL
  • Few at 2,300' AGL
  • Broken at 20,000' AGL
Temperature
31°C / 88°F
Dewpoint
26°C / 79°F
Humidity
75%
Altimeter
29.73" Hg
Pressure
1006.92 hPa